Time;durP1;ratioP1;P1;durP2;ratioP2;P2;SDS_P1;SDS_P2;PMS_P1;PMS_P2;Temp;Humidity;BMP_temperature;BMP_pressure;BME280_temperature;BME280_humidity;BME280_pressure;Samples;Min_cycle;Max_cycle;Signal;HPM_P1;HPM_P2
2022/11/13 00:00:53;;;;;;;14.93;11.90;;;;;;;7.61;100.00;102555.25;5021864;28;20037;-87
2022/11/13 00:03:18;;;;;;;14.47;11.40;;;;;;;7.64;100.00;102557.66;5021474;28;20041;-87
2022/11/13 00:05:44;;;;;;;14.97;10.80;;;;;;;7.69;100.00;102551.81;5021901;28;20512;-86
2022/11/13 00:08:09;;;;;;;15.23;11.13;;;;;;;7.69;100.00;102543.72;5004880;28;20044;-87
2022/11/13 00:10:35;;;;;;;15.53;11.13;;;;;;;7.69;100.00;102546.41;5036564;28;20546;-86
2022/11/13 00:13:00;;;;;;;15.40;11.00;;;;;;;7.70;100.00;102545.44;5035782;28;20064;-87
2022/11/13 00:15:26;;;;;;;16.63;10.80;;;;;;;7.72;100.00;102543.41;5020370;28;20041;-86
2022/11/13 00:17:52;;;;;;;15.33;11.10;;;;;;;7.73;100.00;102545.97;5021736;28;20381;-86
2022/11/13 00:20:17;;;;;;;15.30;10.87;;;;;;;7.70;100.00;102546.25;5020204;28;20500;-87
2022/11/13 00:22:43;;;;;;;16.87;11.50;;;;;;;7.70;100.00;102531.94;5021792;28;20041;-87
2022/11/13 00:25:09;;;;;;;16.40;10.77;;;;;;;7.69;100.00;102538.31;5021024;28;20044;-86
2022/11/13 00:27:34;;;;;;;16.90;10.87;;;;;;;7.67;100.00;102532.22;5036636;28;20041;-87
2022/11/13 00:29:59;;;;;;;15.93;11.47;;;;;;;7.59;100.00;102533.84;5020595;28;20163;-87
2022/11/13 00:32:28;;;;;;;14.87;10.67;;;;;;;7.57;100.00;102529.59;5036710;28;20094;-86
2022/11/13 00:34:53;;;;;;;16.03;10.77;;;;;;;7.60;100.00;102527.44;5021184;28;20409;-87
2022/11/13 00:37:19;;;;;;;14.73;10.57;;;;;;;7.55;100.00;102526.22;5021276;28;20041;-87
2022/11/13 00:39:44;;;;;;;16.33;11.13;;;;;;;7.54;100.00;102514.53;5020922;28;20541;-87
2022/11/13 00:42:10;;;;;;;16.80;11.40;;;;;;;7.58;100.00;102521.34;5012679;28;20419;-86
2022/11/13 00:44:35;;;;;;;16.67;11.17;;;;;;;7.55;100.00;102515.41;5021354;28;20584;-88
2022/11/13 00:47:00;;;;;;;15.43;11.27;;;;;;;7.50;100.00;102513.16;5021171;28;20513;-87
2022/11/13 00:49:26;;;;;;;16.23;11.07;;;;;;;7.56;100.00;102511.69;5036427;28;20045;-87
2022/11/13 00:51:51;;;;;;;14.33;10.73;;;;;;;7.35;100.00;102520.06;5020941;28;20053;-88
2022/11/13 00:54:17;;;;;;;15.87;11.20;;;;;;;7.31;100.00;102510.56;5021048;28;20755;-86
2022/11/13 00:56:42;;;;;;;14.13;10.40;;;;;;;7.36;100.00;102506.41;5035207;28;20041;-88
2022/11/13 00:59:07;;;;;;;14.80;10.00;;;;;;;7.37;100.00;102512.66;5020208;28;20507;-87
2022/11/13 01:01:33;;;;;;;14.90;10.67;;;;;;;7.30;100.00;102506.16;5019878;28;20591;-87
2022/11/13 01:03:58;;;;;;;14.80;10.67;;;;;;;7.22;100.00;102493.41;5020244;28;20120;-86
2022/11/13 01:06:26;;;;;;;15.57;11.30;;;;;;;7.23;100.00;102497.81;5002385;28;20134;-87
2022/11/13 01:08:56;;;;;;;16.43;11.40;;;;;;;7.30;100.00;102508.84;5001170;28;20120;-87
2022/11/13 01:11:25;;;;;;;16.47;11.27;;;;;;;7.25;100.00;102507.47;5019347;28;20037;-87
2022/11/13 01:13:51;;;;;;;15.33;11.87;;;;;;;7.26;100.00;102501.06;5035065;28;20033;-87
2022/11/13 01:16:20;;;;;;;15.23;11.70;;;;;;;7.15;100.00;102498.56;5002221;28;20041;-87
2022/11/13 01:18:46;;;;;;;16.10;11.03;;;;;;;7.16;100.00;102500.25;5018510;28;20063;-86
2022/11/13 01:21:15;;;;;;;15.27;11.50;;;;;;;7.20;100.00;102500.81;5020951;28;20050;-87
2022/11/13 01:23:41;;;;;;;15.97;10.83;;;;;;;7.10;100.00;102493.63;5020684;28;20393;-87
2022/11/13 01:26:12;;;;;;;15.53;10.90;;;;;;;7.11;100.00;102502.53;5019791;28;20033;-87
2022/11/13 01:28:38;;;;;;;14.97;10.80;;;;;;;7.06;100.00;102496.78;5020291;28;20061;-86
2022/11/13 01:31:09;;;;;;;15.33;10.80;;;;;;;7.07;100.00;102490.38;5019556;28;20107;-87
2022/11/13 01:33:34;;;;;;;14.80;10.80;;;;;;;7.06;100.00;102486.00;5018040;28;20099;-86
2022/11/13 01:36:09;;;;;;;16.23;11.10;;;;;;;7.07;100.00;102490.38;5020034;28;20421;-87
2022/11/13 01:38:35;;;;;;;13.40;10.43;;;;;;;7.10;100.00;102479.31;5019568;28;20069;-88
2022/11/13 01:41:00;;;;;;;13.03;10.20;;;;;;;7.14;100.00;102477.16;5019754;28;20121;-87
2022/11/13 01:43:30;;;;;;;16.73;10.73;;;;;;;7.07;100.00;102480.44;5020393;28;20037;-87
2022/11/13 01:45:58;;;;;;;16.03;10.97;;;;;;;7.09;100.00;102483.00;5019587;28;21411;-87
2022/11/13 01:48:27;;;;;;;15.00;10.87;;;;;;;7.07;100.00;102472.38;5019847;28;20033;-87
2022/11/13 01:50:53;;;;;;;13.73;9.93;;;;;;;7.12;100.00;102477.28;5019080;28;20729;-87
2022/11/13 01:53:19;;;;;;;14.43;10.30;;;;;;;7.10;100.00;102482.00;5019849;28;20037;-87
2022/11/13 01:55:45;;;;;;;14.73;10.40;;;;;;;7.07;100.00;102469.66;5019543;28;20033;-87
2022/11/13 01:58:12;;;;;;;14.50;11.23;;;;;;;6.87;100.00;102474.28;5019051;28;20032;-87
2022/11/13 02:01:14;;;;;;;16.07;11.47;;;;;;;6.99;100.00;102472.25;5017098;28;20449;-87
2022/11/13 02:03:40;;;;;;;17.43;11.73;;;;;;;6.88;100.00;102469.72;5019957;28;20033;-87
2022/11/13 02:06:06;;;;;;;16.37;12.53;;;;;;;6.74;100.00;102460.28;5018570;28;20466;-86
2022/11/13 02:08:31;;;;;;;17.40;11.90;;;;;;;6.68;100.00;102455.50;5002376;28;20038;-87
2022/11/13 02:10:57;;;;;;;15.50;12.10;;;;;;;6.55;100.00;102462.03;5001148;28;20091;-86
2022/11/13 02:13:25;;;;;;;16.50;11.13;;;;;;;6.58;100.00;102453.69;5019346;28;20037;-87
2022/11/13 02:15:53;;;;;;;14.73;10.93;;;;;;;6.59;100.00;102460.75;5001284;28;20674;-87
2022/11/13 02:18:21;;;;;;;12.77;10.27;;;;;;;6.44;100.00;102450.59;5011774;28;20045;-86
2022/11/13 02:20:55;;;;;;;14.27;10.50;;;;;;;6.47;100.00;102450.28;5017995;28;20044;-88
2022/11/13 02:23:33;;;;;;;13.23;10.05;;;;;;;6.42;100.00;102443.50;5020168;28;20151;-88
2022/11/13 02:25:59;;;;;;;15.47;10.37;;;;;;;6.50;100.00;102444.59;4999170;28;20044;-88
2022/11/13 02:28:24;;;;;;;15.13;10.67;;;;;;;6.51;100.00;102440.94;5019537;28;20075;-87
2022/11/13 02:30:50;;;;;;;13.07;10.37;;;;;;;6.50;100.00;102434.69;5019043;28;20128;-87
2022/11/13 02:33:21;;;;;;;14.20;10.33;;;;;;;6.37;100.00;102435.00;5019612;28;20599;-87
2022/11/13 02:35:47;;;;;;;15.27;10.80;;;;;;;6.27;100.00;102428.81;5018125;28;20041;-88
2022/11/13 02:38:12;;;;;;;12.03;9.90;;;;;;;6.29;100.00;102429.50;5025679;28;20641;-86
2022/11/13 02:40:38;;;;;;;13.93;10.60;;;;;;;6.20;100.00;102431.22;4990095;28;20120;-87
2022/11/13 02:43:03;;;;;;;14.67;10.93;;;;;;;6.17;100.00;102434.19;5040780;28;20473;-87
2022/11/13 02:45:29;;;;;;;12.83;9.90;;;;;;;6.15;100.00;102428.09;5025970;28;20041;-87
2022/11/13 02:47:54;;;;;;;13.77;10.20;;;;;;;6.15;100.00;102428.09;5026371;28;20466;-88
2022/11/13 02:50:20;;;;;;;12.97;10.10;;;;;;;6.13;100.00;102427.38;5024577;28;20054;-86
2022/11/13 02:52:45;;;;;;;12.43;10.17;;;;;;;6.05;100.00;102433.50;5040395;28;20443;-87
2022/11/13 02:55:11;;;;;;;11.27;9.33;;;;;;;6.20;100.00;102427.66;5026090;28;20425;-88
2022/11/13 02:57:36;;;;;;;15.33;10.23;;;;;;;6.20;100.00;102430.34;5041187;28;20117;-87
2022/11/13 03:00:03;;;;;;;12.37;9.47;;;;;;;6.25;100.00;102428.91;5024770;28;20037;-86
2022/11/13 03:02:29;;;;;;;12.83;9.43;;;;;;;6.29;100.00;102421.41;5023730;28;21519;-87
2022/11/13 03:04:54;;;;;;;13.60;9.20;;;;;;;6.40;100.00;102415.03;5008328;28;20034;-87
2022/11/13 03:07:19;;;;;;;12.50;9.40;;;;;;;6.49;100.00;102418.69;5025523;28;20141;-87
2022/11/13 03:09:45;;;;;;;12.00;9.57;;;;;;;6.56;100.00;102415.25;5026200;28;20037;-87
2022/11/13 03:12:10;;;;;;;13.30;9.43;;;;;;;6.62;100.00;102421.06;5023908;28;20037;-87
2022/11/13 03:14:36;;;;;;;13.47;9.00;;;;;;;6.71;100.00;102421.00;5025528;28;20045;-87
2022/11/13 03:17:02;;;;;;;13.37;8.87;;;;;;;6.75;100.00;102416.19;5006554;28;20340;-87
2022/11/13 03:19:27;;;;;;;14.07;9.33;;;;;;;6.76;99.67;102399.03;5025566;28;20053;-87
2022/11/13 03:21:53;;;;;;;12.07;9.13;;;;;;;6.85;99.06;102399.97;5024844;28;20128;-86
2022/11/13 03:24:18;;;;;;;12.10;9.37;;;;;;;6.90;98.60;102408.47;5024564;28;20042;-86
2022/11/13 03:26:44;;;;;;;11.97;9.03;;;;;;;6.99;97.99;102407.56;5023989;28;20129;-86
2022/11/13 03:29:09;;;;;;;13.27;9.23;;;;;;;7.02;97.69;102392.97;5039326;28;20055;-85
2022/11/13 03:31:35;;;;;;;12.90;9.43;;;;;;;7.01;97.54;102391.25;5039985;28;20490;-86
2022/11/13 03:34:00;;;;;;;13.10;9.10;;;;;;;7.05;97.21;102390.78;5024892;28;20048;-86
2022/11/13 03:36:25;;;;;;;11.80;8.87;;;;;;;7.07;97.33;102396.03;5024560;28;20041;-87
2022/11/13 03:38:51;;;;;;;11.23;8.40;;;;;;;7.08;97.06;102395.88;5024366;28;20481;-86
2022/11/13 03:41:17;;;;;;;12.60;9.07;;;;;;;7.12;96.70;102385.66;5024064;28;20133;-86
2022/11/13 03:43:43;;;;;;;11.07;8.80;;;;;;;7.16;96.16;102394.28;5025348;28;20099;-87
2022/11/13 03:46:08;;;;;;;12.63;9.07;;;;;;;7.15;96.17;102390.72;5025204;28;20094;-86
2022/11/13 03:48:34;;;;;;;12.37;8.50;;;;;;;7.12;96.09;102391.03;5021564;28;20531;-87
2022/11/13 03:51:00;;;;;;;11.10;8.60;;;;;;;7.14;96.21;102391.75;5002623;28;20069;-87
2022/11/13 03:53:25;;;;;;;11.67;8.93;;;;;;;7.18;95.63;102379.66;5023202;28;20064;-86
2022/11/13 03:55:51;;;;;;;11.20;8.70;;;;;;;7.25;95.15;102385.31;5022047;28;21534;-86
2022/11/13 03:58:16;;;;;;;11.93;8.50;;;;;;;7.28;95.14;102390.38;5021343;28;20032;-86
2022/11/13 04:00:43;;;;;;;11.17;8.70;;;;;;;7.29;94.83;102386.69;5010372;28;20049;-86
2022/11/13 04:03:27;;;;;;;10.23;8.60;;;;;;;7.33;94.63;102373.72;5026783;28;20158;-87
2022/11/13 04:05:52;;;;;;;12.07;9.03;;;;;;;7.27;94.81;102369.81;4994670;28;21152;-86
2022/11/13 04:08:18;;;;;;;10.90;8.83;;;;;;;7.33;94.57;102376.44;5012296;28;20038;-87
2022/11/13 04:10:44;;;;;;;12.40;8.67;;;;;;;7.38;94.20;102366.88;4995493;28;20069;-87
2022/11/13 04:13:10;;;;;;;13.67;9.07;;;;;;;7.38;94.02;102363.34;5011009;28;20630;-86
2022/11/13 04:15:36;;;;;;;12.90;8.77;;;;;;;7.38;93.95;102361.47;5010692;28;20087;-85
2022/11/13 04:18:01;;;;;;;12.67;8.47;;;;;;;7.36;93.96;102355.41;5010834;28;20048;-87
2022/11/13 04:20:27;;;;;;;11.60;8.73;;;;;;;7.30;94.01;102350.63;5007027;28;21406;-88
2022/11/13 04:22:53;;;;;;;11.77;8.60;;;;;;;7.36;94.01;102357.28;4994389;28;20080;-85
2022/11/13 04:25:18;;;;;;;11.97;8.70;;;;;;;7.34;93.72;102349.31;4995570;28;20048;-86
2022/11/13 04:27:44;;;;;;;13.70;9.10;;;;;;;7.29;93.94;102338.16;5025753;28;20217;-86
2022/11/13 04:30:10;;;;;;;13.97;8.87;;;;;;;7.31;93.76;102340.69;5017750;28;20037;-85
2022/11/13 04:32:35;;;;;;;13.70;9.70;;;;;;;7.22;94.19;102343.31;5021050;28;20573;-87
2022/11/13 04:35:00;;;;;;;13.67;9.37;;;;;;;7.25;93.98;102344.88;5020759;28;20041;-86
2022/11/13 04:37:26;;;;;;;14.97;9.67;;;;;;;7.22;94.07;102334.34;5020532;28;20037;-86
2022/11/13 04:39:51;;;;;;;11.87;9.17;;;;;;;7.16;94.30;102333.13;5021096;28;20132;-85
2022/11/13 04:45:00;;;;;;;14.20;9.00;;;;;;;7.13;94.24;102333.44;5019737;28;20044;-86
2022/11/13 04:47:26;;;;;;;13.43;9.40;;;;;;;7.09;94.10;102323.97;5020333;28;20464;-87
2022/11/13 04:49:51;;;;;;;12.87;9.73;;;;;;;7.15;93.88;102330.59;5021017;28;20123;-85
2022/11/13 04:52:17;;;;;;;17.03;10.10;;;;;;;7.08;94.19;102330.34;5020322;28;20053;-86
2022/11/13 04:54:42;;;;;;;12.83;9.27;;;;;;;7.07;94.18;102331.34;5020573;28;20147;-87
2022/11/13 04:57:07;;;;;;;14.03;9.70;;;;;;;6.98;94.42;102324.19;5018628;28;20069;-87
2022/11/13 04:59:33;;;;;;;13.83;9.73;;;;;;;6.95;94.56;102325.34;5020058;28;20037;-86
2022/11/13 05:01:58;;;;;;;14.83;9.67;;;;;;;6.89;94.54;102321.38;5018818;28;20052;-87
2022/11/13 05:04:23;;;;;;;14.07;9.30;;;;;;;6.89;94.48;102323.25;5020430;28;20040;-86
2022/11/13 05:06:49;;;;;;;13.87;9.67;;;;;;;6.82;94.81;102324.84;5001864;28;20611;-87
2022/11/13 05:09:15;;;;;;;13.40;9.30;;;;;;;6.76;94.85;102329.00;5001486;28;20048;-86
2022/11/13 05:11:40;;;;;;;13.47;9.97;;;;;;;6.76;94.98;102321.75;5018833;28;20030;-86
2022/11/13 05:14:05;;;;;;;15.80;9.70;;;;;;;6.76;95.23;102320.91;5019954;28;20444;-88
2022/11/13 05:16:31;;;;;;;12.50;9.47;;;;;;;6.73;95.19;102316.69;5020532;28;20042;-86
2022/11/13 05:18:58;;;;;;;12.13;9.13;;;;;;;6.75;95.16;102324.59;5020456;28;20457;-86
2022/11/13 05:21:23;;;;;;;11.50;9.33;;;;;;;6.79;95.12;102317.91;5020580;28;20096;-86
2022/11/13 05:23:48;;;;;;;13.50;9.27;;;;;;;6.74;95.01;102307.56;5020262;28;20041;-86
2022/11/13 05:26:14;;;;;;;14.60;9.30;;;;;;;6.73;95.29;102311.28;5034282;28;20033;-86
2022/11/13 05:28:40;;;;;;;12.40;9.30;;;;;;;6.76;95.27;102310.97;5020711;28;20033;-87
2022/11/13 05:31:08;;;;;;;12.43;9.40;;;;;;;6.73;95.41;102310.41;5017605;28;20033;-87
2022/11/13 05:33:34;;;;;;;12.47;9.40;;;;;;;6.66;95.34;102299.41;4995917;28;20029;-86
2022/11/13 05:36:05;;;;;;;12.50;9.27;;;;;;;6.62;95.56;102298.00;5018794;28;20037;-87
2022/11/13 05:38:30;;;;;;;12.93;9.70;;;;;;;6.57;95.81;102287.69;5012293;28;20040;-86
2022/11/13 05:41:14;;;;;;;14.53;9.63;;;;;;;6.50;96.45;102288.44;5019142;28;20033;-87
2022/11/13 05:43:40;;;;;;;13.87;9.60;;;;;;;6.47;96.37;102288.72;5034930;28;20040;-86
2022/11/13 05:46:11;;;;;;;14.13;8.97;;;;;;;6.34;96.64;102284.53;5019493;28;20028;-87
2022/11/13 05:48:37;;;;;;;12.00;9.73;;;;;;;6.17;97.11;102290.69;5018641;28;20037;-87
2022/11/13 05:51:06;;;;;;;11.80;9.70;;;;;;;6.15;97.32;102288.16;5019145;28;20135;-86
2022/11/13 05:53:34;;;;;;;12.23;9.60;;;;;;;5.94;97.56;102295.56;5001965;28;20029;-87
2022/11/13 05:56:05;;;;;;;12.53;9.20;;;;;;;5.82;98.42;102287.66;5017993;28;20033;-87
2022/11/13 05:58:31;;;;;;;13.97;9.60;;;;;;;5.71;98.41;102294.06;5019471;28;20085;-87
2022/11/13 06:01:06;;;;;;;12.73;10.20;;;;;;;5.58;99.55;102299.72;5019889;28;20117;-87
2022/11/13 06:03:32;;;;;;;13.27;9.93;;;;;;;5.47;99.33;102289.13;5017853;28;20155;-88
2022/11/13 06:05:58;;;;;;;16.67;10.50;;;;;;;5.51;100.00;102292.38;5018359;28;20064;-87
2022/11/13 06:08:23;;;;;;;13.37;10.03;;;;;;;5.33;100.00;102293.09;5019592;28;20046;-87
2022/11/13 06:10:48;;;;;;;15.63;10.40;;;;;;;5.28;100.00;102287.28;5017507;28;20045;-87
2022/11/13 06:13:14;;;;;;;13.60;10.17;;;;;;;5.18;100.00;102289.97;5018143;28;20041;-87
2022/11/13 06:15:39;;;;;;;14.87;10.67;;;;;;;5.10;100.00;102287.16;5019529;28;20099;-87
2022/11/13 06:18:05;;;;;;;14.83;10.07;;;;;;;5.08;100.00;102276.50;5018861;28;20374;-87
2022/11/13 06:20:33;;;;;;;13.80;10.37;;;;;;;4.88;100.00;102278.34;5034590;28;20072;-87
2022/11/13 06:22:58;;;;;;;13.97;10.47;;;;;;;4.95;100.00;102278.66;5033710;28;20046;-87
2022/11/13 06:25:24;;;;;;;13.67;10.13;;;;;;;4.90;100.00;102279.03;5018038;28;20045;-87
2022/11/13 06:27:49;;;;;;;14.77;10.67;;;;;;;4.80;100.00;102278.19;5019507;28;20041;-87
2022/11/13 06:30:14;;;;;;;12.67;10.13;;;;;;;4.76;100.00;102284.84;5018637;28;20621;-87
2022/11/13 06:32:40;;;;;;;12.73;10.20;;;;;;;4.68;100.00;102282.00;5017385;28;20809;-87
2022/11/13 06:35:08;;;;;;;14.23;10.27;;;;;;;4.63;100.00;102274.31;5018626;28;20037;-87
2022/11/13 06:37:34;;;;;;;12.50;10.10;;;;;;;4.56;100.00;102278.56;5018584;28;20029;-87
2022/11/13 06:39:59;;;;;;;14.40;9.93;;;;;;;4.60;100.00;102282.66;5018189;28;20037;-87
2022/11/13 06:42:24;;;;;;;12.77;9.47;;;;;;;4.40;100.00;102276.38;5018776;28;20051;-87
2022/11/13 06:44:49;;;;;;;12.83;9.90;;;;;;;4.36;100.00;102275.78;5019123;28;20045;-87
2022/11/13 06:47:15;;;;;;;12.53;9.83;;;;;;;4.24;100.00;102268.81;5000396;28;20033;-86
2022/11/13 06:49:40;;;;;;;12.80;10.17;;;;;;;4.28;100.00;102270.25;5017734;28;20032;-87
2022/11/13 06:52:06;;;;;;;14.33;10.70;;;;;;;4.36;100.00;102266.91;5016561;28;20052;-87
2022/11/13 06:54:31;;;;;;;13.40;10.30;;;;;;;4.19;100.00;102261.19;5018527;28;20079;-87
2022/11/13 06:56:57;;;;;;;12.93;10.17;;;;;;;4.26;100.00;102258.81;5033943;28;20037;-87
2022/11/13 06:59:22;;;;;;;14.60;10.63;;;;;;;4.27;100.00;102262.34;5020217;28;20029;-86
2022/11/13 07:01:50;;;;;;;13.13;10.53;;;;;;;4.24;100.00;102255.41;5019159;28;20528;-87
2022/11/13 07:04:15;;;;;;;13.80;10.07;;;;;;;4.20;100.00;102248.63;5019568;28;20037;-85
2022/11/13 07:06:40;;;;;;;15.77;10.57;;;;;;;4.11;100.00;102244.94;5019587;28;20119;-86
2022/11/13 07:09:06;;;;;;;13.00;10.43;;;;;;;4.20;100.00;102256.66;5018963;28;20042;-86
2022/11/13 07:11:31;;;;;;;12.37;10.13;;;;;;;4.18;100.00;102250.59;5019008;28;20064;-86
2022/11/13 07:13:57;;;;;;;13.67;10.53;;;;;;;4.08;100.00;102250.56;5018465;28;20100;-86
2022/11/13 07:16:22;;;;;;;15.30;11.00;;;;;;;4.05;100.00;102249.00;5018050;28;20084;-87
2022/11/13 07:18:51;;;;;;;14.87;11.30;;;;;;;4.19;100.00;102258.50;5017707;28;20048;-87
2022/11/13 07:21:18;;;;;;;14.70;10.53;;;;;;;4.14;100.00;102252.69;5018170;28;20112;-87
2022/11/13 07:23:47;;;;;;;14.77;11.10;;;;;;;4.09;100.00;102254.09;5019548;28;20080;-86
2022/11/13 07:26:13;;;;;;;14.40;10.93;;;;;;;4.09;100.00;102260.28;5022590;28;20042;-87
2022/11/13 07:28:38;;;;;;;14.83;11.00;;;;;;;4.17;100.00;102254.25;5020827;28;20053;-86
2022/11/13 07:31:05;;;;;;;13.47;10.63;;;;;;;4.06;100.00;102249.84;5022052;28;20079;-87
2022/11/13 07:33:30;;;;;;;12.50;10.90;;;;;;;4.10;100.00;102258.47;5021420;28;20029;-87
2022/11/13 07:35:56;;;;;;;14.13;10.40;;;;;;;4.10;100.00;102253.94;5036472;28;20576;-87
2022/11/13 07:38:23;;;;;;;14.87;10.87;;;;;;;4.25;100.00;102250.91;5021957;28;20024;-86
2022/11/13 07:40:49;;;;;;;12.53;10.53;;;;;;;4.39;100.00;102258.56;5021645;28;20504;-87
2022/11/13 07:43:14;;;;;;;13.87;10.37;;;;;;;4.46;100.00;102262.44;5022022;28;20477;-87
2022/11/13 07:45:39;;;;;;;13.07;10.50;;;;;;;4.48;100.00;102262.28;5021408;28;20045;-87
2022/11/13 07:48:05;;;;;;;12.10;9.77;;;;;;;4.56;100.00;102249.88;5002535;28;20124;-87
2022/11/13 07:50:34;;;;;;;11.50;10.00;;;;;;;4.72;100.00;102249.34;5021134;28;20540;-86
2022/11/13 07:53:04;;;;;;;12.20;9.63;;;;;;;4.88;100.00;102259.56;5021513;28;20045;-87
2022/11/13 07:55:32;;;;;;;12.53;9.67;;;;;;;4.86;100.00;102250.75;4997562;28;20060;-87
2022/11/13 07:57:59;;;;;;;12.50;9.30;;;;;;;5.31;100.00;102249.38;5021090;28;20103;-88
2022/11/13 08:00:26;;;;;;;12.10;8.53;;;;;;;5.31;100.00;102249.38;5020939;28;20092;-87
2022/11/13 08:02:52;;;;;;;12.93;9.60;;;;;;;5.64;100.00;102244.50;5021180;28;20044;-87
2022/11/13 08:05:18;;;;;;;13.90;8.93;;;;;;;5.98;100.00;102241.31;5020550;28;20424;-87
2022/11/13 08:07:49;;;;;;;13.90;9.03;;;;;;;6.52;100.00;102246.88;5020689;28;20045;-87
2022/11/13 08:10:16;;;;;;;13.47;9.43;;;;;;;6.89;100.00;102239.72;5021627;28;21376;-86
2022/11/13 08:12:42;;;;;;;14.10;9.47;;;;;;;7.15;98.71;102242.47;5034761;28;20041;-89
2022/11/13 08:15:08;;;;;;;14.77;10.20;;;;;;;7.43;97.41;102240.53;5020330;28;20033;-88
2022/11/13 08:17:33;;;;;;;14.13;9.40;;;;;;;7.73;96.08;102237.53;5021091;28;20128;-87
2022/11/13 08:19:58;;;;;;;12.77;8.57;;;;;;;8.05;95.24;102253.09;5020120;28;20045;-88
2022/11/13 08:22:24;;;;;;;12.03;9.00;;;;;;;8.35;93.85;102244.59;5020156;28;20044;-88
2022/11/13 08:24:52;;;;;;;13.20;9.07;;;;;;;8.55;92.48;102247.91;5018124;28;20048;-88
2022/11/13 08:27:19;;;;;;;11.97;9.47;;;;;;;9.14;90.67;102239.75;5020538;28;20025;-88
2022/11/13 08:29:44;;;;;;;14.30;10.20;;;;;;;9.27;89.94;102237.41;5012311;28;20069;-87
2022/11/13 08:32:13;;;;;;;13.27;9.83;;;;;;;9.64;88.37;102243.28;5032633;28;20166;-87
2022/11/13 08:34:39;;;;;;;13.97;10.20;;;;;;;9.81;86.26;102233.28;5035328;28;20069;-87
2022/11/13 08:37:05;;;;;;;14.50;10.67;;;;;;;10.19;84.42;102228.09;5020231;28;20517;-88
2022/11/13 08:39:30;;;;;;;12.97;9.90;;;;;;;10.27;83.14;102233.47;5035633;28;20044;-88
2022/11/13 08:41:55;;;;;;;14.67;10.23;;;;;;;10.76;82.54;102226.16;5021266;28;20390;-88
2022/11/13 08:44:21;;;;;;;16.03;10.47;;;;;;;11.13;80.04;102229.94;5020814;28;20029;-88
2022/11/13 08:46:46;;;;;;;14.50;9.53;;;;;;;11.23;79.04;102235.97;5020681;28;20055;-88
2022/11/13 08:49:12;;;;;;;11.60;9.47;;;;;;;11.35;78.24;102225.50;5021013;28;20394;-88
2022/11/13 08:51:37;;;;;;;12.43;9.53;;;;;;;11.42;78.89;102218.34;5020340;28;20115;-88
2022/11/13 08:54:02;;;;;;;13.83;9.40;;;;;;;11.99;75.96;102221.50;5020633;28;20103;-89
2022/11/13 08:56:28;;;;;;;10.47;8.60;;;;;;;11.47;75.76;102221.31;5022085;28;20056;-88
2022/11/13 08:58:53;;;;;;;12.83;7.87;;;;;;;12.15;72.50;102224.03;5018358;28;20040;-88
2022/11/13 09:01:22;;;;;;;11.03;7.87;;;;;;;12.41;73.46;102222.69;5020340;28;20075;-88
2022/11/13 09:03:48;;;;;;;10.47;7.50;;;;;;;12.61;71.52;102213.94;5035853;28;20029;-88
2022/11/13 09:06:16;;;;;;;12.87;8.17;;;;;;;13.24;70.38;102230.44;5019547;28;20121;-88
2022/11/13 09:08:42;;;;;;;9.30;7.50;;;;;;;12.84;69.14;102219.19;5020164;28;20029;-87
2022/11/13 09:11:07;;;;;;;10.17;7.20;;;;;;;13.20;68.96;102231.88;5020086;28;20048;-88
2022/11/13 09:13:33;;;;;;;8.87;7.27;;;;;;;13.55;67.08;102225.72;5020178;28;20044;-88
2022/11/13 09:16:00;;;;;;;9.20;6.55;;;;;;;13.77;66.02;102223.78;5020337;28;20136;-88
2022/11/13 09:18:26;;;;;;;9.48;6.80;;;;;;;13.97;63.47;102219.28;5018484;28;20072;-88
2022/11/13 09:20:52;;;;;;;7.28;6.55;;;;;;;14.28;62.02;102220.72;5020267;28;20033;-87
2022/11/13 09:23:17;;;;;;;7.70;6.35;;;;;;;14.45;62.16;102215.72;5019488;28;20068;-88
2022/11/13 09:25:42;;;;;;;7.30;6.18;;;;;;;15.16;60.59;102211.72;5020578;28;20045;-88
2022/11/13 09:28:09;;;;;;;9.75;6.35;;;;;;;15.28;60.05;102214.66;5019572;28;20134;-87
2022/11/13 09:30:37;;;;;;;9.13;6.40;;;;;;;15.62;58.85;102210.00;5001848;28;20041;-88
2022/11/13 09:33:02;;;;;;;8.40;6.07;;;;;;;15.88;58.64;102194.66;5019968;28;20113;-87
2022/11/13 09:35:35;;;;;;;5.95;5.35;;;;;;;16.47;55.56;102211.91;5019662;28;20029;-86
2022/11/13 09:38:06;;;;;;;7.88;5.85;;;;;;;16.65;55.46;102207.59;4995634;28;20053;-86
2022/11/13 09:40:35;;;;;;;5.85;5.25;;;;;;;16.32;53.87;102209.44;5019915;28;20053;-86
2022/11/13 09:43:03;;;;;;;7.30;5.20;;;;;;;16.38;53.62;102208.56;5019626;28;20025;-85
2022/11/13 09:45:30;;;;;;;5.47;4.85;;;;;;;16.45;51.98;102203.06;5019282;28;20040;-86
2022/11/13 09:48:11;;;;;;;6.10;5.28;;;;;;;16.79;50.94;102208.34;5011311;28;20033;-86
2022/11/13 09:50:38;;;;;;;5.95;4.80;;;;;;;16.95;49.57;102207.84;5020361;28;20030;-87
2022/11/13 09:53:04;;;;;;;6.38;5.03;;;;;;;17.25;50.24;102218.16;5018864;28;20893;-86
2022/11/13 09:55:55;;;;;;;5.85;5.18;;;;;;;17.78;50.86;102211.34;5019061;28;20310;-86
2022/11/13 09:58:30;;;;;;;5.55;4.70;;;;;;;17.79;47.48;102207.53;5019551;28;20471;-86
2022/11/13 10:00:59;;;;;;;5.63;4.82;;;;;;;17.97;46.90;102204.00;5019845;28;20036;-86
2022/11/13 10:03:29;;;;;;;5.45;4.80;;;;;;;18.12;47.06;102200.03;5019157;28;20071;-85
2022/11/13 10:06:46;;;;;;;6.90;5.28;;;;;;;18.78;51.76;102195.56;5018523;28;20047;-86
2022/11/13 10:09:50;;;;;;;6.93;5.10;;;;;;;18.14;52.94;102193.25;4976340;28;20051;-85
2022/11/13 10:12:16;;;;;;;8.45;5.20;;;;;;;18.14;46.39;102198.75;4938847;28;21072;-86
2022/11/13 10:14:47;;;;;;;7.30;5.40;;;;;;;17.33;49.10;102197.88;5004304;28;20053;-86
2022/11/13 10:17:40;;;;;;;7.18;5.30;;;;;;;17.48;50.37;102197.53;5019347;28;20030;-86
2022/11/13 10:20:10;;;;;;;6.82;5.47;;;;;;;16.63;51.21;102194.13;5018667;28;20126;-86
2022/11/13 10:22:40;;;;;;;7.70;5.50;;;;;;;17.27;50.24;102201.50;5018970;28;20599;-86
2022/11/13 10:25:09;;;;;;;5.80;5.28;;;;;;;16.49;49.47;102195.25;4993955;28;20057;-86
2022/11/13 10:27:34;;;;;;;5.80;5.30;;;;;;;16.08;51.66;102183.66;5001472;28;20135;-86
2022/11/13 10:29:59;;;;;;;9.00;5.28;;;;;;;15.70;54.80;102184.38;5000813;28;20037;-85
2022/11/13 10:32:29;;;;;;;5.70;5.20;;;;;;;15.43;55.92;102189.03;5019120;28;20124;-86
2022/11/13 10:35:08;;;;;;;6.13;5.00;;;;;;;15.32;53.79;102177.69;5010834;28;20033;-86
2022/11/13 10:37:42;;;;;;;6.05;5.10;;;;;;;15.89;53.61;102181.84;5019572;28;20507;-86
2022/11/13 10:40:08;;;;;;;5.30;4.80;;;;;;;15.56;52.38;102178.09;5017961;28;20469;-86
2022/11/13 10:42:40;;;;;;;5.47;4.90;;;;;;;16.02;54.28;102174.44;5019036;28;20037;-86
2022/11/13 10:45:17;;;;;;;5.85;4.72;;;;;;;17.25;50.00;102170.75;5018216;28;20091;-86
2022/11/13 10:47:49;;;;;;;5.68;5.07;;;;;;;17.69;48.87;102161.47;5019334;28;20033;-87
2022/11/13 10:50:23;;;;;;;5.07;4.60;;;;;;;18.37;48.17;102161.50;5018491;28;20809;-86
2022/11/13 10:52:52;;;;;;;5.20;4.70;;;;;;;18.41;47.00;102153.66;4997742;28;20068;-86
2022/11/13 10:55:35;;;;;;;5.20;4.65;;;;;;;19.06;45.87;102155.66;5018189;28;20523;-86
2022/11/13 10:58:10;;;;;;;4.90;4.40;;;;;;;18.66;45.60;102148.84;5018482;28;20041;-86
2022/11/13 11:00:37;;;;;;;5.88;4.47;;;;;;;19.39;42.53;102148.72;5022937;28;20109;-86
2022/11/13 11:03:06;;;;;;;5.00;4.47;;;;;;;19.30;42.10;102147.44;5021742;28;20531;-85
2022/11/13 11:05:32;;;;;;;4.78;4.28;;;;;;;19.54;43.85;102134.50;5022924;28;20087;-86
2022/11/13 11:07:58;;;;;;;3.95;3.60;;;;;;;19.73;40.75;102133.28;5038379;28;20527;-85
2022/11/13 11:10:35;;;;;;;4.03;3.72;;;;;;;20.07;43.16;102133.47;5023943;28;20034;-86
2022/11/13 11:13:19;;;;;;;3.88;3.55;;;;;;;20.01;41.40;102134.44;5021301;28;20752;-86
2022/11/13 11:15:53;;;;;;;;;;;;;;;20.72;46.14;102136.06;5022153;28;20594;-85
2022/11/13 11:18:27;;;;;;;4.50;3.90;;;;;;;19.46;43.76;102126.63;5021664;28;19935;-85
2022/11/13 11:20:58;;;;;;;4.03;3.63;;;;;;;19.23;40.80;102122.81;5000358;28;20040;-85